createdAt,value
2022-10-09T08:08:43.256Z,13.70
2022-10-09T08:11:16.073Z,13.60
2022-10-09T08:13:44.674Z,13.70
2022-10-09T08:16:12.035Z,13.80
2022-10-09T08:18:39.300Z,13.80
2022-10-09T08:21:09.302Z,14.00
2022-10-09T08:23:36.446Z,14.10
2022-10-09T08:26:04.275Z,14.20
2022-10-09T08:28:31.659Z,14.30
2022-10-09T08:30:58.699Z,14.40
2022-10-09T08:33:26.138Z,14.40
2022-10-09T08:35:54.360Z,14.50
2022-10-09T08:38:45.543Z,14.50
2022-10-09T08:41:09.533Z,14.60
2022-10-09T08:43:39.963Z,14.70
2022-10-09T08:46:20.781Z,14.80
2022-10-09T08:48:50.307Z,14.80
2022-10-09T08:51:31.015Z,15.00
2022-10-09T08:54:26.476Z,15.00
2022-10-09T08:56:54.177Z,15.10
2022-10-09T08:59:20.979Z,15.20
2022-10-09T09:02:22.988Z,15.30
2022-10-09T09:05:23.147Z,15.40
2022-10-09T09:07:55.881Z,15.50
2022-10-09T09:10:42.681Z,15.60
2022-10-09T09:13:15.467Z,15.80
2022-10-09T09:15:49.768Z,15.90
2022-10-09T09:18:45.273Z,16.00
2022-10-09T09:21:17.236Z,16.10
2022-10-09T09:23:48.106Z,16.20
2022-10-09T09:26:20.645Z,16.30
2022-10-09T09:28:52.442Z,16.40
2022-10-09T09:31:25.019Z,16.40
2022-10-09T09:34:17.216Z,16.50
2022-10-09T09:36:49.579Z,16.60
2022-10-09T09:42:24.068Z,16.80
2022-10-09T09:45:02.022Z,16.90
2022-10-09T09:47:43.244Z,17.10
2022-10-09T09:50:28.479Z,17.10
2022-10-09T09:53:00.657Z,17.20
2022-10-09T09:55:30.769Z,17.40
2022-10-09T09:58:04.342Z,17.50
2022-10-09T10:00:31.737Z,17.60
2022-10-09T10:03:14.134Z,17.70
2022-10-09T10:05:43.663Z,17.80
2022-10-09T10:08:31.646Z,17.90
2022-10-09T10:11:18.177Z,18.00
2022-10-09T10:13:49.593Z,18.10
2022-10-09T10:16:24.895Z,18.20
2022-10-09T10:18:53.088Z,18.30
2022-10-09T10:21:21.631Z,18.40
2022-10-09T10:24:05.373Z,18.50
2022-10-09T10:26:43.780Z,18.60
2022-10-09T10:29:20.600Z,18.70
2022-10-09T10:31:50.276Z,18.70
2022-10-09T10:34:32.807Z,18.80
2022-10-09T10:37:05.997Z,18.90
2022-10-09T10:40:14.918Z,18.90
2022-10-09T10:42:52.456Z,18.80
2022-10-09T10:45:44.948Z,18.90
2022-10-09T10:48:18.298Z,18.90
2022-10-09T10:50:58.609Z,19.00
2022-10-09T10:53:37.155Z,19.10
2022-10-09T10:56:12.916Z,19.20
2022-10-09T10:58:51.089Z,19.30
2022-10-09T11:01:52.968Z,19.30
2022-10-09T11:04:52.491Z,19.40
2022-10-09T11:07:49.192Z,19.40
2022-10-09T11:10:24.096Z,19.30
2022-10-09T11:12:57.535Z,19.40
2022-10-09T11:15:39.252Z,19.40
2022-10-09T11:18:18.188Z,19.40
2022-10-09T11:21:05.315Z,19.50
2022-10-09T11:24:11.281Z,19.70
2022-10-09T11:26:59.675Z,19.80
2022-10-09T11:29:37.296Z,19.90
2022-10-09T11:32:28.755Z,19.90
2022-10-09T11:35:03.751Z,19.90
2022-10-09T11:37:39.223Z,19.80
2022-10-09T11:40:23.109Z,19.90
2022-10-09T11:43:18.933Z,19.90
2022-10-09T11:46:33.052Z,19.80
2022-10-09T11:49:19.986Z,19.90
2022-10-09T11:51:55.068Z,20.00
2022-10-09T11:54:23.424Z,19.90
2022-10-09T11:57:05.198Z,20.10
2022-10-09T11:59:36.466Z,20.00
2022-10-09T12:02:25.924Z,20.00
2022-10-09T12:04:55.198Z,20.00
2022-10-09T12:07:41.693Z,20.00
2022-10-09T12:10:20.305Z,20.00
2022-10-09T12:12:58.780Z,20.10
2022-10-09T12:15:47.326Z,20.10
2022-10-09T12:18:22.294Z,20.10
2022-10-09T12:20:50.035Z,20.20
2022-10-09T12:23:26.616Z,20.30
2022-10-09T12:25:56.439Z,20.20
2022-10-09T12:28:36.656Z,20.30
2022-10-09T12:31:07.850Z,20.20
2022-10-09T12:33:46.688Z,20.30
2022-10-09T12:36:26.583Z,20.30
2022-10-09T12:38:54.345Z,20.30
2022-10-09T12:41:29.110Z,20.30
2022-10-09T12:43:57.620Z,20.30
2022-10-09T12:46:34.234Z,20.50
2022-10-09T12:49:04.790Z,20.40
2022-10-09T12:51:34.156Z,20.40
2022-10-09T12:54:08.886Z,20.20
2022-10-09T12:56:38.493Z,20.10
2022-10-09T12:59:07.242Z,20.10
2022-10-09T13:01:35.420Z,20.10
2022-10-09T13:04:04.881Z,20.10
2022-10-09T13:06:45.626Z,20.20
2022-10-09T13:09:22.988Z,20.10
2022-10-09T13:12:05.872Z,20.10
2022-10-09T13:14:53.724Z,20.10
2022-10-09T13:17:29.653Z,20.00
2022-10-09T13:19:59.775Z,19.90
2022-10-09T13:22:33.667Z,19.90
2022-10-09T13:25:04.140Z,19.80
2022-10-09T13:27:34.351Z,19.70
2022-10-09T13:30:01.641Z,19.70
2022-10-09T13:32:28.488Z,19.70
2022-10-09T13:34:55.984Z,19.70
2022-10-09T13:37:24.637Z,19.70
2022-10-09T13:39:56.360Z,19.80
2022-10-09T13:42:29.871Z,19.60
2022-10-09T13:44:56.956Z,19.50
2022-10-09T13:47:24.795Z,19.50
2022-10-09T13:49:51.856Z,19.40
2022-10-09T13:52:18.751Z,19.40
2022-10-09T13:54:45.795Z,19.50
2022-10-09T13:57:12.605Z,19.50
2022-10-09T13:59:40.324Z,19.30
2022-10-09T14:02:07.715Z,19.30
2022-10-09T14:04:34.594Z,19.20
2022-10-09T14:07:01.446Z,19.20
2022-10-09T14:09:28.517Z,19.20
2022-10-09T14:11:55.393Z,19.10
2022-10-09T14:14:22.588Z,19.10
2022-10-09T14:16:50.912Z,19.00
2022-10-09T14:19:18.088Z,19.00
2022-10-09T14:21:46.778Z,19.00
2022-10-09T14:24:14.550Z,18.90
2022-10-09T14:26:41.373Z,19.00
2022-10-09T14:29:09.776Z,18.90
2022-10-09T14:31:36.825Z,18.90
2022-10-09T14:34:03.786Z,18.90
2022-10-09T14:36:31.636Z,18.90
2022-10-09T14:39:01.554Z,18.90
2022-10-09T14:41:30.625Z,18.90
2022-10-09T14:44:00.214Z,18.80
2022-10-09T14:46:28.827Z,18.80
2022-10-09T14:48:57.189Z,18.70
2022-10-09T14:51:26.595Z,18.70
2022-10-09T14:53:58.233Z,18.50
2022-10-09T14:56:26.617Z,18.50
2022-10-09T14:58:53.527Z,18.50
2022-10-09T15:01:22.430Z,18.50
2022-10-09T15:03:49.389Z,18.40
2022-10-09T15:06:18.356Z,18.30
2022-10-09T15:08:45.336Z,18.30
2022-10-09T15:11:12.726Z,18.30
2022-10-09T15:13:40.072Z,18.30
2022-10-09T15:16:14.048Z,18.30
2022-10-09T15:18:41.843Z,18.30
2022-10-09T15:21:36.081Z,18.20
2022-10-09T15:24:04.022Z,18.10
2022-10-09T15:26:33.228Z,18.20
2022-10-09T15:29:03.366Z,18.20
2022-10-09T15:31:38.825Z,18.10
2022-10-09T15:34:07.876Z,18.00
2022-10-09T15:36:37.404Z,18.10
2022-10-09T15:39:07.743Z,18.00
2022-10-09T15:41:37.906Z,18.00
2022-10-09T15:44:24.062Z,17.90
2022-10-09T15:46:50.872Z,17.90
2022-10-09T15:49:18.030Z,17.90
2022-10-09T15:51:45.057Z,17.80
2022-10-09T15:54:12.913Z,17.80
2022-10-09T15:56:41.348Z,17.70
2022-10-09T15:59:12.643Z,17.70
2022-10-09T16:01:39.740Z,17.60
2022-10-09T16:04:06.649Z,17.60
2022-10-09T16:06:33.538Z,17.50
2022-10-09T16:09:01.085Z,17.50
2022-10-09T16:11:28.191Z,17.40
2022-10-09T16:13:55.786Z,17.40
2022-10-09T16:16:25.185Z,17.40
2022-10-09T16:18:52.432Z,17.30
2022-10-09T16:21:26.317Z,17.30
2022-10-09T16:23:58.433Z,17.30
2022-10-09T16:26:27.833Z,17.20
2022-10-09T16:28:54.976Z,17.20
2022-10-09T16:31:24.483Z,17.10
2022-10-09T16:33:52.140Z,17.10
2022-10-09T16:36:19.353Z,17.10
2022-10-09T16:38:46.352Z,17.10
2022-10-09T16:41:18.647Z,17.00
2022-10-09T16:43:47.575Z,17.00
2022-10-09T16:46:24.985Z,16.90
2022-10-09T16:48:53.504Z,16.90
2022-10-09T16:51:26.559Z,16.90
2022-10-09T16:53:55.653Z,16.80
2022-10-09T16:56:24.958Z,16.80
2022-10-09T16:58:55.916Z,16.70
2022-10-09T17:01:23.731Z,16.70
2022-10-09T17:03:50.653Z,16.70
2022-10-09T17:06:23.804Z,16.60
2022-10-09T17:08:56.153Z,16.60
2022-10-09T17:11:23.960Z,16.50
2022-10-09T17:13:52.149Z,16.50
2022-10-09T17:16:21.324Z,16.50
2022-10-09T17:18:48.642Z,16.50
2022-10-09T17:21:17.854Z,16.40
2022-10-09T17:23:45.712Z,16.40
2022-10-09T17:26:16.167Z,16.30
2022-10-09T17:28:44.044Z,16.40
2022-10-09T17:31:14.301Z,16.30
2022-10-09T17:33:43.017Z,16.40
2022-10-09T17:36:10.612Z,16.30
2022-10-09T17:38:37.939Z,16.30
2022-10-09T17:41:09.731Z,16.30
2022-10-09T17:43:37.635Z,16.20
2022-10-09T17:46:04.909Z,16.20
2022-10-09T17:48:34.066Z,16.10
2022-10-09T17:51:03.714Z,16.10
2022-10-09T17:53:31.236Z,16.10
2022-10-09T17:56:03.529Z,16.10
2022-10-09T17:58:33.479Z,16.10
2022-10-09T18:01:05.355Z,16.10
2022-10-09T18:03:32.369Z,16.10
2022-10-09T18:06:02.358Z,16.10
2022-10-09T18:08:31.035Z,16.10
2022-10-09T18:11:00.106Z,16.10
2022-10-09T18:13:26.963Z,16.10
2022-10-09T18:15:54.081Z,16.10
2022-10-09T18:18:21.269Z,16.10
2022-10-09T18:20:48.198Z,16.00
2022-10-09T18:23:18.405Z,16.10
2022-10-09T18:25:47.509Z,16.10
2022-10-09T18:28:15.288Z,16.10
2022-10-09T18:30:48.397Z,16.10
2022-10-09T18:33:15.315Z,16.10
2022-10-09T18:35:42.187Z,16.00
2022-10-09T18:38:10.968Z,16.00
2022-10-09T18:40:45.524Z,16.00
2022-10-09T18:43:12.846Z,15.90
2022-10-09T18:45:46.015Z,15.90
2022-10-09T18:48:13.943Z,15.90
2022-10-09T18:50:41.013Z,15.90
2022-10-09T18:53:08.334Z,15.90
2022-10-09T18:55:35.530Z,15.80
2022-10-09T18:58:03.215Z,15.80
2022-10-09T19:00:30.877Z,15.80
2022-10-09T19:02:57.832Z,15.80
2022-10-09T19:05:24.867Z,15.70
2022-10-09T19:07:52.207Z,15.70
2022-10-09T19:10:19.311Z,15.70
2022-10-09T19:12:46.628Z,15.70
2022-10-09T19:15:14.722Z,15.70
2022-10-09T19:17:42.090Z,15.70
2022-10-09T19:20:09.193Z,15.80
2022-10-09T19:22:36.271Z,15.70
2022-10-09T19:25:04.424Z,15.70
2022-10-09T19:27:32.570Z,15.70
2022-10-09T19:29:59.625Z,15.70
2022-10-09T19:32:26.723Z,15.70
2022-10-09T19:34:53.528Z,15.60
2022-10-09T19:37:22.086Z,15.60
2022-10-09T19:39:51.003Z,15.60
2022-10-09T19:42:18.978Z,15.60
2022-10-09T19:44:47.246Z,15.50
2022-10-09T19:47:15.127Z,15.50
2022-10-09T19:49:42.136Z,15.50
2022-10-09T19:52:09.353Z,15.50
2022-10-09T19:54:37.831Z,15.40
2022-10-09T19:57:04.652Z,15.30
2022-10-09T19:59:31.818Z,15.30
2022-10-09T20:01:58.692Z,15.20
2022-10-09T20:04:25.599Z,15.10
2022-10-09T20:06:52.431Z,15.10
2022-10-09T20:09:20.807Z,15.00
2022-10-09T20:11:48.349Z,15.10
2022-10-09T20:14:15.588Z,15.00
2022-10-09T20:16:42.499Z,14.90
2022-10-09T20:19:09.526Z,14.90
2022-10-09T20:21:36.414Z,14.80
2022-10-09T20:24:03.310Z,14.80
2022-10-09T20:26:33.102Z,14.80
2022-10-09T20:29:00.308Z,14.80
2022-10-09T20:31:28.120Z,14.70
2022-10-09T20:33:55.871Z,14.80
2022-10-09T20:36:37.476Z,14.70
2022-10-09T20:39:07.372Z,14.70
2022-10-09T20:41:35.230Z,14.70
2022-10-09T20:44:03.325Z,14.70
2022-10-09T20:46:32.709Z,14.60
2022-10-09T20:49:01.635Z,14.60
2022-10-09T20:51:28.620Z,14.60
2022-10-09T20:53:57.713Z,14.50
2022-10-09T20:56:26.832Z,14.60
2022-10-09T20:58:54.319Z,14.60
2022-10-09T21:01:21.689Z,14.60
2022-10-09T21:03:48.783Z,14.60
2022-10-09T21:06:18.233Z,14.50
2022-10-09T21:08:45.264Z,14.60
2022-10-09T21:11:16.711Z,14.50
2022-10-09T21:13:45.181Z,14.60
2022-10-09T21:16:17.164Z,14.50
2022-10-09T21:18:44.234Z,14.50
2022-10-09T21:21:16.705Z,14.50
2022-10-09T21:23:45.011Z,14.40
2022-10-09T21:26:13.755Z,14.40
2022-10-09T21:28:41.355Z,14.50
2022-10-09T21:31:28.511Z,14.50
2022-10-09T21:33:56.577Z,14.50
2022-10-09T21:37:20.422Z,14.50
2022-10-09T21:39:49.038Z,14.40
2022-10-09T21:42:15.911Z,14.30
2022-10-09T21:44:42.720Z,14.30
2022-10-09T21:47:18.697Z,14.30
2022-10-09T21:49:45.590Z,14.30
2022-10-09T21:52:12.547Z,14.30
2022-10-09T21:54:39.469Z,14.30
2022-10-09T21:57:06.501Z,14.30
2022-10-09T21:59:33.398Z,14.30
2022-10-09T22:02:00.320Z,14.30
2022-10-09T22:04:27.383Z,14.30
2022-10-09T22:06:54.183Z,14.30
2022-10-09T22:09:21.374Z,14.30
2022-10-09T22:11:48.257Z,14.20
2022-10-09T22:14:15.475Z,14.30
2022-10-09T22:16:42.479Z,14.20
2022-10-09T22:19:09.444Z,14.20
2022-10-09T22:21:36.497Z,14.10
2022-10-09T22:24:03.656Z,14.10
2022-10-09T22:26:30.484Z,14.10
2022-10-09T22:28:57.547Z,14.10
2022-10-09T22:31:26.499Z,14.10
2022-10-09T22:33:58.535Z,14.10
2022-10-09T22:36:27.838Z,14.10
2022-10-09T22:38:56.497Z,14.00
2022-10-09T22:41:24.724Z,14.00
2022-10-09T22:43:54.302Z,14.00
2022-10-09T22:46:33.714Z,14.00
2022-10-09T22:49:01.315Z,14.00
2022-10-09T22:51:29.742Z,14.00
2022-10-09T22:53:57.845Z,14.00
2022-10-09T22:56:30.270Z,14.00
2022-10-09T22:58:57.525Z,14.00
2022-10-09T23:01:40.099Z,14.00
2022-10-09T23:04:13.620Z,14.00
2022-10-09T23:06:41.893Z,14.00
2022-10-09T23:09:10.821Z,13.90
2022-10-09T23:11:37.707Z,13.90
2022-10-09T23:14:05.463Z,13.90
2022-10-09T23:16:32.763Z,13.90
2022-10-09T23:19:06.067Z,13.90
2022-10-09T23:21:35.415Z,13.90
2022-10-09T23:24:02.437Z,13.90
2022-10-09T23:26:31.409Z,13.90
2022-10-09T23:29:06.508Z,13.90
2022-10-09T23:31:33.701Z,13.90
2022-10-09T23:34:01.079Z,13.90
2022-10-09T23:36:29.666Z,13.90
2022-10-09T23:38:57.569Z,13.80
2022-10-09T23:41:26.774Z,13.80
2022-10-09T23:43:54.192Z,13.80
2022-10-09T23:46:24.074Z,13.80
2022-10-09T23:48:51.861Z,13.80
2022-10-09T23:51:20.825Z,13.80
2022-10-09T23:53:47.922Z,13.80
2022-10-09T23:56:25.832Z,13.80
2022-10-09T23:58:53.642Z,13.80
